sensor_id;sensor_type;location;lat;lon;timestamp;temperature;humidity
35700;DHT22;21818;51.078;12.108;2023-04-03T00:01:32;10.10;73.40
35700;DHT22;21818;51.078;12.108;2023-04-03T00:03:58;10.20;73.30
35700;DHT22;21818;51.078;12.108;2023-04-03T00:06:24;10.30;73.70
35700;DHT22;21818;51.078;12.108;2023-04-03T00:08:50;10.20;73.30
35700;DHT22;21818;51.078;12.108;2023-04-03T00:11:16;10.20;73.20
35700;DHT22;21818;51.078;12.108;2023-04-03T00:13:42;10.30;73.40
35700;DHT22;21818;51.078;12.108;2023-04-03T00:16:09;10.30;73.50
35700;DHT22;21818;51.078;12.108;2023-04-03T00:18:36;10.20;73.60
35700;DHT22;21818;51.078;12.108;2023-04-03T00:21:02;10.20;73.60
35700;DHT22;21818;51.078;12.108;2023-04-03T00:23:27;10.10;73.80
35700;DHT22;21818;51.078;12.108;2023-04-03T00:25:53;10.00;73.70
35700;DHT22;21818;51.078;12.108;2023-04-03T00:28:19;10.00;73.70
35700;DHT22;21818;51.078;12.108;2023-04-03T00:30:46;9.90;73.70
35700;DHT22;21818;51.078;12.108;2023-04-03T00:33:14;9.90;73.50
35700;DHT22;21818;51.078;12.108;2023-04-03T00:35:40;9.80;73.50
35700;DHT22;21818;51.078;12.108;2023-04-03T00:38:06;9.80;73.50
35700;DHT22;21818;51.078;12.108;2023-04-03T00:40:37;9.90;73.50
35700;DHT22;21818;51.078;12.108;2023-04-03T00:45:47;9.80;73.50
35700;DHT22;21818;51.078;12.108;2023-04-03T00:48:18;9.70;73.60
35700;DHT22;21818;51.078;12.108;2023-04-03T00:50:45;9.70;73.50
35700;DHT22;21818;51.078;12.108;2023-04-03T00:53:15;9.70;73.50
35700;DHT22;21818;51.078;12.108;2023-04-03T00:55:42;9.60;73.50
35700;DHT22;21818;51.078;12.108;2023-04-03T00:58:08;9.70;73.50
35700;DHT22;21818;51.078;12.108;2023-04-03T01:00:38;9.70;73.10
35700;DHT22;21818;51.078;12.108;2023-04-03T01:03:05;9.60;73.10
35700;DHT22;21818;51.078;12.108;2023-04-03T01:05:31;9.60;73.20
35700;DHT22;21818;51.078;12.108;2023-04-03T01:07:57;9.50;73.30
35700;DHT22;21818;51.078;12.108;2023-04-03T01:10:23;9.50;73.40
35700;DHT22;21818;51.078;12.108;2023-04-03T01:12:51;9.40;73.40
35700;DHT22;21818;51.078;12.108;2023-04-03T01:15:25;9.40;73.30
35700;DHT22;21818;51.078;12.108;2023-04-03T01:17:55;9.40;73.30
35700;DHT22;21818;51.078;12.108;2023-04-03T01:25:41;9.40;73.50
35700;DHT22;21818;51.078;12.108;2023-04-03T01:28:11;9.30;73.50
35700;DHT22;21818;51.078;12.108;2023-04-03T01:30:43;9.30;73.60
35700;DHT22;21818;51.078;12.108;2023-04-03T01:33:10;9.30;73.60
35700;DHT22;21818;51.078;12.108;2023-04-03T01:35:37;9.30;73.50
35700;DHT22;21818;51.078;12.108;2023-04-03T01:38:02;9.30;73.20
35700;DHT22;21818;51.078;12.108;2023-04-03T01:40:28;9.30;73.30
35700;DHT22;21818;51.078;12.108;2023-04-03T01:42:53;9.30;73.30
35700;DHT22;21818;51.078;12.108;2023-04-03T01:45:19;9.20;73.30
35700;DHT22;21818;51.078;12.108;2023-04-03T01:47:44;9.20;73.30
35700;DHT22;21818;51.078;12.108;2023-04-03T01:50:10;9.10;73.40
35700;DHT22;21818;51.078;12.108;2023-04-03T01:52:35;9.10;73.50
35700;DHT22;21818;51.078;12.108;2023-04-03T01:55:01;9.10;73.50
35700;DHT22;21818;51.078;12.108;2023-04-03T01:57:27;9.00;73.60
35700;DHT22;21818;51.078;12.108;2023-04-03T01:59:52;9.10;73.50
35700;DHT22;21818;51.078;12.108;2023-04-03T02:02:18;9.10;73.40
35700;DHT22;21818;51.078;12.108;2023-04-03T02:04:45;9.00;73.50
35700;DHT22;21818;51.078;12.108;2023-04-03T02:07:11;9.00;73.50
35700;DHT22;21818;51.078;12.108;2023-04-03T02:09:36;9.00;73.30
35700;DHT22;21818;51.078;12.108;2023-04-03T02:12:02;8.90;73.20
35700;DHT22;21818;51.078;12.108;2023-04-03T02:14:28;8.90;73.40
35700;DHT22;21818;51.078;12.108;2023-04-03T02:16:53;8.90;73.20
35700;DHT22;21818;51.078;12.108;2023-04-03T02:19:19;8.90;73.30
35700;DHT22;21818;51.078;12.108;2023-04-03T02:21:44;8.90;73.30
35700;DHT22;21818;51.078;12.108;2023-04-03T02:24:10;8.80;73.20
35700;DHT22;21818;51.078;12.108;2023-04-03T02:26:36;8.70;73.20
35700;DHT22;21818;51.078;12.108;2023-04-03T02:29:01;8.70;73.50
35700;DHT22;21818;51.078;12.108;2023-04-03T02:31:27;8.70;73.50
35700;DHT22;21818;51.078;12.108;2023-04-03T02:33:52;8.60;73.50
35700;DHT22;21818;51.078;12.108;2023-04-03T02:36:18;8.50;73.60
35700;DHT22;21818;51.078;12.108;2023-04-03T02:38:43;8.50;73.70
35700;DHT22;21818;51.078;12.108;2023-04-03T02:41:10;8.50;73.70
35700;DHT22;21818;51.078;12.108;2023-04-03T02:43:37;8.50;73.80
35700;DHT22;21818;51.078;12.108;2023-04-03T02:46:03;8.40;73.70
35700;DHT22;21818;51.078;12.108;2023-04-03T02:48:29;8.40;73.80
35700;DHT22;21818;51.078;12.108;2023-04-03T02:50:55;8.40;73.80
35700;DHT22;21818;51.078;12.108;2023-04-03T02:53:20;8.30;73.90
35700;DHT22;21818;51.078;12.108;2023-04-03T02:55:46;8.30;73.90
35700;DHT22;21818;51.078;12.108;2023-04-03T02:58:11;8.30;73.90
35700;DHT22;21818;51.078;12.108;2023-04-03T03:00:37;8.30;73.90
35700;DHT22;21818;51.078;12.108;2023-04-03T03:03:03;8.30;74.10
35700;DHT22;21818;51.078;12.108;2023-04-03T03:05:29;8.30;74.00
35700;DHT22;21818;51.078;12.108;2023-04-03T03:07:55;8.30;74.10
35700;DHT22;21818;51.078;12.108;2023-04-03T03:10:21;8.20;74.10
35700;DHT22;21818;51.078;12.108;2023-04-03T03:12:47;8.20;74.10
35700;DHT22;21818;51.078;12.108;2023-04-03T03:15:12;8.20;74.10
35700;DHT22;21818;51.078;12.108;2023-04-03T03:17:38;8.20;74.20
35700;DHT22;21818;51.078;12.108;2023-04-03T03:20:05;8.10;74.30
35700;DHT22;21818;51.078;12.108;2023-04-03T03:22:32;8.10;74.20
35700;DHT22;21818;51.078;12.108;2023-04-03T03:24:58;8.10;74.20
35700;DHT22;21818;51.078;12.108;2023-04-03T03:27:23;8.10;74.30
35700;DHT22;21818;51.078;12.108;2023-04-03T03:29:49;8.10;74.30
35700;DHT22;21818;51.078;12.108;2023-04-03T03:32:14;8.00;74.30
35700;DHT22;21818;51.078;12.108;2023-04-03T03:34:40;8.00;74.30
35700;DHT22;21818;51.078;12.108;2023-04-03T03:37:06;8.00;74.50
35700;DHT22;21818;51.078;12.108;2023-04-03T03:39:31;7.90;74.50
35700;DHT22;21818;51.078;12.108;2023-04-03T03:41:57;7.90;74.50
35700;DHT22;21818;51.078;12.108;2023-04-03T03:44:22;7.90;74.50
35700;DHT22;21818;51.078;12.108;2023-04-03T03:46:48;7.90;74.50
35700;DHT22;21818;51.078;12.108;2023-04-03T03:49:13;7.90;74.60
35700;DHT22;21818;51.078;12.108;2023-04-03T03:51:39;7.90;74.50
35700;DHT22;21818;51.078;12.108;2023-04-03T03:54:06;7.90;74.60
35700;DHT22;21818;51.078;12.108;2023-04-03T03:56:31;7.80;74.50
35700;DHT22;21818;51.078;12.108;2023-04-03T03:58:57;7.80;74.50
35700;DHT22;21818;51.078;12.108;2023-04-03T04:01:23;7.80;74.60
35700;DHT22;21818;51.078;12.108;2023-04-03T04:03:49;7.80;74.50
35700;DHT22;21818;51.078;12.108;2023-04-03T04:06:15;7.80;75.00
35700;DHT22;21818;51.078;12.108;2023-04-03T04:08:41;7.80;74.50
35700;DHT22;21818;51.078;12.108;2023-04-03T04:11:07;7.80;74.50
35700;DHT22;21818;51.078;12.108;2023-04-03T04:13:32;7.80;74.40
35700;DHT22;21818;51.078;12.108;2023-04-03T04:15:58;7.80;74.50
35700;DHT22;21818;51.078;12.108;2023-04-03T04:18:24;7.70;74.50
35700;DHT22;21818;51.078;12.108;2023-04-03T04:20:50;7.70;74.60
35700;DHT22;21818;51.078;12.108;2023-04-03T04:23:16;7.60;74.60
35700;DHT22;21818;51.078;12.108;2023-04-03T04:25:45;7.60;74.60
35700;DHT22;21818;51.078;12.108;2023-04-03T04:28:11;7.70;74.70
35700;DHT22;21818;51.078;12.108;2023-04-03T04:30:37;7.60;74.70
35700;DHT22;21818;51.078;12.108;2023-04-03T04:33:03;7.70;74.60
35700;DHT22;21818;51.078;12.108;2023-04-03T04:35:28;7.70;74.70
35700;DHT22;21818;51.078;12.108;2023-04-03T04:37:54;7.60;74.70
35700;DHT22;21818;51.078;12.108;2023-04-03T04:40:20;7.60;74.70
35700;DHT22;21818;51.078;12.108;2023-04-03T04:42:46;7.60;74.70
35700;DHT22;21818;51.078;12.108;2023-04-03T04:45:11;7.60;74.70
35700;DHT22;21818;51.078;12.108;2023-04-03T04:47:37;7.60;74.70
35700;DHT22;21818;51.078;12.108;2023-04-03T04:50:03;7.60;74.70
35700;DHT22;21818;51.078;12.108;2023-04-03T04:52:29;7.60;74.60
35700;DHT22;21818;51.078;12.108;2023-04-03T04:54:54;7.60;74.60
35700;DHT22;21818;51.078;12.108;2023-04-03T04:57:20;7.60;74.50
35700;DHT22;21818;51.078;12.108;2023-04-03T04:59:45;7.60;74.60
35700;DHT22;21818;51.078;12.108;2023-04-03T05:02:11;7.60;74.60
35700;DHT22;21818;51.078;12.108;2023-04-03T05:04:37;7.60;74.60
35700;DHT22;21818;51.078;12.108;2023-04-03T05:07:02;7.60;74.60
35700;DHT22;21818;51.078;12.108;2023-04-03T05:09:28;7.60;74.60
35700;DHT22;21818;51.078;12.108;2023-04-03T05:11:53;7.60;74.60
35700;DHT22;21818;51.078;12.108;2023-04-03T05:14:19;7.50;74.60
35700;DHT22;21818;51.078;12.108;2023-04-03T05:16:45;7.50;74.60
35700;DHT22;21818;51.078;12.108;2023-04-03T05:19:11;7.50;74.60
35700;DHT22;21818;51.078;12.108;2023-04-03T05:21:36;7.60;74.50
35700;DHT22;21818;51.078;12.108;2023-04-03T05:24:02;7.60;74.50
35700;DHT22;21818;51.078;12.108;2023-04-03T05:26:29;7.50;74.40
35700;DHT22;21818;51.078;12.108;2023-04-03T05:28:55;7.50;74.50
35700;DHT22;21818;51.078;12.108;2023-04-03T05:31:20;7.50;74.40
35700;DHT22;21818;51.078;12.108;2023-04-03T05:33:46;7.50;74.30
35700;DHT22;21818;51.078;12.108;2023-04-03T05:36:12;7.50;74.40
35700;DHT22;21818;51.078;12.108;2023-04-03T05:38:38;7.50;74.30
35700;DHT22;21818;51.078;12.108;2023-04-03T05:41:05;7.50;74.30
35700;DHT22;21818;51.078;12.108;2023-04-03T05:43:31;7.50;74.10
35700;DHT22;21818;51.078;12.108;2023-04-03T05:45:56;7.60;74.00
35700;DHT22;21818;51.078;12.108;2023-04-03T05:48:22;7.60;73.90
35700;DHT22;21818;51.078;12.108;2023-04-03T05:50:48;7.60;73.80
35700;DHT22;21818;51.078;12.108;2023-04-03T05:53:18;7.60;73.80
35700;DHT22;21818;51.078;12.108;2023-04-03T05:55:46;7.60;73.90
35700;DHT22;21818;51.078;12.108;2023-04-03T05:58:11;7.60;73.80
35700;DHT22;21818;51.078;12.108;2023-04-03T06:00:37;7.70;73.60
35700;DHT22;21818;51.078;12.108;2023-04-03T06:03:03;7.80;73.50
35700;DHT22;21818;51.078;12.108;2023-04-03T06:05:28;7.80;73.60
35700;DHT22;21818;51.078;12.108;2023-04-03T06:07:54;7.90;73.30
35700;DHT22;21818;51.078;12.108;2023-04-03T06:10:19;8.30;73.50
35700;DHT22;21818;51.078;12.108;2023-04-03T06:12:45;9.10;72.40
35700;DHT22;21818;51.078;12.108;2023-04-03T06:15:11;9.80;71.40
35700;DHT22;21818;51.078;12.108;2023-04-03T06:17:37;10.20;70.80
35700;DHT22;21818;51.078;12.108;2023-04-03T06:20:03;10.60;70.40
35700;DHT22;21818;51.078;12.108;2023-04-03T06:22:29;10.80;70.20
35700;DHT22;21818;51.078;12.108;2023-04-03T06:24:56;11.00;70.00
35700;DHT22;21818;51.078;12.108;2023-04-03T06:27:21;11.10;70.00
35700;DHT22;21818;51.078;12.108;2023-04-03T06:29:47;11.30;69.90
35700;DHT22;21818;51.078;12.108;2023-04-03T06:32:14;11.40;69.80
35700;DHT22;21818;51.078;12.108;2023-04-03T06:34:40;11.50;69.70
35700;DHT22;21818;51.078;12.108;2023-04-03T06:37:10;11.60;69.70
35700;DHT22;21818;51.078;12.108;2023-04-03T06:39:36;11.70;69.70
35700;DHT22;21818;51.078;12.108;2023-04-03T06:42:01;11.80;69.70
35700;DHT22;21818;51.078;12.108;2023-04-03T06:44:27;11.90;69.60
35700;DHT22;21818;51.078;12.108;2023-04-03T06:46:52;12.00;69.60
35700;DHT22;21818;51.078;12.108;2023-04-03T06:49:19;12.00;69.50
35700;DHT22;21818;51.078;12.108;2023-04-03T06:51:45;12.10;69.50
35700;DHT22;21818;51.078;12.108;2023-04-03T06:54:10;12.10;69.50
35700;DHT22;21818;51.078;12.108;2023-04-03T06:56:36;12.20;69.40
35700;DHT22;21818;51.078;12.108;2023-04-03T06:59:02;12.30;69.50
35700;DHT22;21818;51.078;12.108;2023-04-03T07:01:29;12.30;69.40
35700;DHT22;21818;51.078;12.108;2023-04-03T07:03:55;12.40;69.40
35700;DHT22;21818;51.078;12.108;2023-04-03T07:06:21;12.40;69.30
35700;DHT22;21818;51.078;12.108;2023-04-03T07:08:48;12.50;69.30
35700;DHT22;21818;51.078;12.108;2023-04-03T07:11:14;12.50;69.20
35700;DHT22;21818;51.078;12.108;2023-04-03T07:13:40;12.60;69.20
35700;DHT22;21818;51.078;12.108;2023-04-03T07:16:07;12.60;69.10
35700;DHT22;21818;51.078;12.108;2023-04-03T07:18:33;12.60;69.20
35700;DHT22;21818;51.078;12.108;2023-04-03T07:20:59;12.60;69.20
35700;DHT22;21818;51.078;12.108;2023-04-03T07:23:25;12.70;69.20
35700;DHT22;21818;51.078;12.108;2023-04-03T07:25:51;12.70;69.10
35700;DHT22;21818;51.078;12.108;2023-04-03T07:28:18;12.70;69.10
35700;DHT22;21818;51.078;12.108;2023-04-03T07:30:52;12.70;69.10
35700;DHT22;21818;51.078;12.108;2023-04-03T07:33:20;12.70;69.00
35700;DHT22;21818;51.078;12.108;2023-04-03T07:35:46;12.80;69.10
35700;DHT22;21818;51.078;12.108;2023-04-03T07:38:12;12.80;69.00
35700;DHT22;21818;51.078;12.108;2023-04-03T07:40:38;12.80;69.00
35700;DHT22;21818;51.078;12.108;2023-04-03T07:43:04;12.90;68.90
35700;DHT22;21818;51.078;12.108;2023-04-03T07:45:31;12.90;68.80
35700;DHT22;21818;51.078;12.108;2023-04-03T07:47:57;13.00;68.80
35700;DHT22;21818;51.078;12.108;2023-04-03T07:50:23;13.00;68.90
35700;DHT22;21818;51.078;12.108;2023-04-03T07:52:49;13.00;68.80
35700;DHT22;21818;51.078;12.108;2023-04-03T07:55:16;13.10;68.70
35700;DHT22;21818;51.078;12.108;2023-04-03T07:57:41;13.10;68.60
35700;DHT22;21818;51.078;12.108;2023-04-03T08:00:08;13.20;68.60
35700;DHT22;21818;51.078;12.108;2023-04-03T08:02:34;13.20;68.60
35700;DHT22;21818;51.078;12.108;2023-04-03T08:05:00;13.20;68.50
35700;DHT22;21818;51.078;12.108;2023-04-03T08:07:26;13.20;68.50
35700;DHT22;21818;51.078;12.108;2023-04-03T08:09:52;13.20;68.60
35700;DHT22;21818;51.078;12.108;2023-04-03T08:12:17;13.20;68.60
35700;DHT22;21818;51.078;12.108;2023-04-03T08:14:43;13.20;68.70
35700;DHT22;21818;51.078;12.108;2023-04-03T08:17:09;13.20;68.60
35700;DHT22;21818;51.078;12.108;2023-04-03T08:19:37;13.20;68.60
35700;DHT22;21818;51.078;12.108;2023-04-03T08:22:03;13.20;68.70
35700;DHT22;21818;51.078;12.108;2023-04-03T08:24:30;13.30;68.60
35700;DHT22;21818;51.078;12.108;2023-04-03T08:26:56;13.30;68.60
35700;DHT22;21818;51.078;12.108;2023-04-03T08:29:22;13.30;68.40
35700;DHT22;21818;51.078;12.108;2023-04-03T08:31:47;13.40;68.40
35700;DHT22;21818;51.078;12.108;2023-04-03T08:34:15;13.40;68.40
35700;DHT22;21818;51.078;12.108;2023-04-03T08:36:41;13.50;68.30
35700;DHT22;21818;51.078;12.108;2023-04-03T08:39:07;13.50;68.30
35700;DHT22;21818;51.078;12.108;2023-04-03T08:41:38;13.50;68.30
35700;DHT22;21818;51.078;12.108;2023-04-03T08:44:25;13.50;68.20
35700;DHT22;21818;51.078;12.108;2023-04-03T08:49:47;13.60;68.10
35700;DHT22;21818;51.078;12.108;2023-04-03T08:55:00;13.50;68.10
35700;DHT22;21818;51.078;12.108;2023-04-03T08:57:35;13.50;68.00
35700;DHT22;21818;51.078;12.108;2023-04-03T09:00:07;13.50;67.90
35700;DHT22;21818;51.078;12.108;2023-04-03T09:02:48;13.60;67.90
35700;DHT22;21818;51.078;12.108;2023-04-03T09:05:41;13.60;67.80
35700;DHT22;21818;51.078;12.108;2023-04-03T09:08:28;13.70;67.80
35700;DHT22;21818;51.078;12.108;2023-04-03T09:24:39;13.60;67.90
35700;DHT22;21818;51.078;12.108;2023-04-03T09:27:10;13.70;68.10
35700;DHT22;21818;51.078;12.108;2023-04-03T09:29:41;13.70;68.00
35700;DHT22;21818;51.078;12.108;2023-04-03T09:32:32;13.70;68.10
35700;DHT22;21818;51.078;12.108;2023-04-03T09:37:52;13.70;68.00
35700;DHT22;21818;51.078;12.108;2023-04-03T09:40:34;13.70;68.10
35700;DHT22;21818;51.078;12.108;2023-04-03T09:45:47;13.80;68.00
35700;DHT22;21818;51.078;12.108;2023-04-03T09:50:52;13.80;68.00
35700;DHT22;21818;51.078;12.108;2023-04-03T09:53:45;13.80;68.00
35700;DHT22;21818;51.078;12.108;2023-04-03T09:58:51;13.80;67.90
35700;DHT22;21818;51.078;12.108;2023-04-03T10:01:35;13.90;67.90
35700;DHT22;21818;51.078;12.108;2023-04-03T10:04:17;13.80;67.80
35700;DHT22;21818;51.078;12.108;2023-04-03T10:12:08;13.80;67.90
35700;DHT22;21818;51.078;12.108;2023-04-03T10:14:53;13.90;67.90
35700;DHT22;21818;51.078;12.108;2023-04-03T10:20:33;13.90;67.80
35700;DHT22;21818;51.078;12.108;2023-04-03T10:25:49;14.00;67.70
35700;DHT22;21818;51.078;12.108;2023-04-03T10:28:34;14.00;67.80
35700;DHT22;21818;51.078;12.108;2023-04-03T10:34:18;14.00;67.80
35700;DHT22;21818;51.078;12.108;2023-04-03T10:37:12;14.00;67.60
35700;DHT22;21818;51.078;12.108;2023-04-03T10:40:12;14.10;67.50
35700;DHT22;21818;51.078;12.108;2023-04-03T10:48:18;14.00;67.40
35700;DHT22;21818;51.078;12.108;2023-04-03T10:51:10;14.10;67.40
35700;DHT22;21818;51.078;12.108;2023-04-03T10:53:50;14.10;67.40
35700;DHT22;21818;51.078;12.108;2023-04-03T10:59:01;14.10;67.40
35700;DHT22;21818;51.078;12.108;2023-04-03T11:01:32;14.10;67.40
35700;DHT22;21818;51.078;12.108;2023-04-03T11:04:00;14.10;67.40
35700;DHT22;21818;51.078;12.108;2023-04-03T11:06:39;14.10;67.30
35700;DHT22;21818;51.078;12.108;2023-04-03T11:11:43;14.20;67.20
35700;DHT22;21818;51.078;12.108;2023-04-03T11:14:20;14.20;67.20
35700;DHT22;21818;51.078;12.108;2023-04-03T11:16:50;14.20;67.20
35700;DHT22;21818;51.078;12.108;2023-04-03T11:19:22;14.20;67.20
35700;DHT22;21818;51.078;12.108;2023-04-03T11:21:55;14.20;67.20
35700;DHT22;21818;51.078;12.108;2023-04-03T11:24:25;14.20;67.20
35700;DHT22;21818;51.078;12.108;2023-04-03T11:26:54;14.20;66.90
35700;DHT22;21818;51.078;12.108;2023-04-03T11:29:23;14.20;67.10
35700;DHT22;21818;51.078;12.108;2023-04-03T11:32:09;14.20;67.10
35700;DHT22;21818;51.078;12.108;2023-04-03T11:34:46;14.20;67.10
35700;DHT22;21818;51.078;12.108;2023-04-03T11:37:17;14.30;67.10
35700;DHT22;21818;51.078;12.108;2023-04-03T11:39:54;14.30;67.10
35700;DHT22;21818;51.078;12.108;2023-04-03T11:42:41;14.30;67.00
35700;DHT22;21818;51.078;12.108;2023-04-03T11:53:31;14.40;66.90
35700;DHT22;21818;51.078;12.108;2023-04-03T11:56:03;14.40;66.80
35700;DHT22;21818;51.078;12.108;2023-04-03T11:58:36;14.40;66.80
35700;DHT22;21818;51.078;12.108;2023-04-03T12:01:11;14.50;66.80
35700;DHT22;21818;51.078;12.108;2023-04-03T12:04:05;14.60;66.70
35700;DHT22;21818;51.078;12.108;2023-04-03T12:09:01;14.60;66.70
35700;DHT22;21818;51.078;12.108;2023-04-03T12:11:31;14.50;66.60
35700;DHT22;21818;51.078;12.108;2023-04-03T12:24:31;16.20;62.80
35700;DHT22;21818;51.078;12.108;2023-04-03T12:35:20;15.90;63.10
35700;DHT22;21818;51.078;12.108;2023-04-03T12:40:48;15.50;64.40
35700;DHT22;21818;51.078;12.108;2023-04-03T12:46:13;16.50;62.50
35700;DHT22;21818;51.078;12.108;2023-04-03T12:48:52;16.80;61.80
35700;DHT22;21818;51.078;12.108;2023-04-03T12:51:39;16.40;62.20
35700;DHT22;21818;51.078;12.108;2023-04-03T12:54:37;16.00;62.90
35700;DHT22;21818;51.078;12.108;2023-04-03T12:57:24;15.70;63.50
35700;DHT22;21818;51.078;12.108;2023-04-03T12:59:50;15.50;63.90
35700;DHT22;21818;51.078;12.108;2023-04-03T13:02:28;15.40;64.30
35700;DHT22;21818;51.078;12.108;2023-04-03T13:04:57;15.40;64.40
35700;DHT22;21818;51.078;12.108;2023-04-03T13:07:32;15.40;64.40
35700;DHT22;21818;51.078;12.108;2023-04-03T13:10:18;15.40;64.40
35700;DHT22;21818;51.078;12.108;2023-04-03T13:15:40;15.30;64.70
35700;DHT22;21818;51.078;12.108;2023-04-03T13:18:42;15.20;64.80
35700;DHT22;21818;51.078;12.108;2023-04-03T13:21:19;15.20;64.80
35700;DHT22;21818;51.078;12.108;2023-04-03T13:23:49;15.20;64.80
35700;DHT22;21818;51.078;12.108;2023-04-03T13:26:17;15.60;64.60
35700;DHT22;21818;51.078;12.108;2023-04-03T13:28:44;15.90;63.70
35700;DHT22;21818;51.078;12.108;2023-04-03T13:33:57;15.70;63.90
35700;DHT22;21818;51.078;12.108;2023-04-03T13:36:36;15.60;64.10
35700;DHT22;21818;51.078;12.108;2023-04-03T13:41:43;15.40;64.40
35700;DHT22;21818;51.078;12.108;2023-04-03T13:46:51;15.30;64.60
35700;DHT22;21818;51.078;12.108;2023-04-03T13:51:51;15.30;64.50
35700;DHT22;21818;51.078;12.108;2023-04-03T13:54:35;15.30;64.50
35700;DHT22;21818;51.078;12.108;2023-04-03T13:57:03;15.30;64.50
35700;DHT22;21818;51.078;12.108;2023-04-03T13:59:36;15.20;64.60
35700;DHT22;21818;51.078;12.108;2023-04-03T14:04:31;15.20;64.80
35700;DHT22;21818;51.078;12.108;2023-04-03T14:06:57;15.20;64.90
35700;DHT22;21818;51.078;12.108;2023-04-03T14:09:25;15.10;64.80
35700;DHT22;21818;51.078;12.108;2023-04-03T14:11:55;15.10;64.90
35700;DHT22;21818;51.078;12.108;2023-04-03T14:14:24;15.10;64.90
35700;DHT22;21818;51.078;12.108;2023-04-03T14:16:55;15.10;65.00
35700;DHT22;21818;51.078;12.108;2023-04-03T14:19:31;15.10;64.90
35700;DHT22;21818;51.078;12.108;2023-04-03T14:22:00;15.10;64.90
35700;DHT22;21818;51.078;12.108;2023-04-03T14:24:26;15.10;64.80
35700;DHT22;21818;51.078;12.108;2023-04-03T14:26:53;15.10;64.70
35700;DHT22;21818;51.078;12.108;2023-04-03T14:29:22;15.10;64.70
35700;DHT22;21818;51.078;12.108;2023-04-03T14:31:49;15.00;64.70
35700;DHT22;21818;51.078;12.108;2023-04-03T14:34:16;15.00;65.20
35700;DHT22;21818;51.078;12.108;2023-04-03T14:36:43;15.00;64.80
35700;DHT22;21818;51.078;12.108;2023-04-03T14:39:16;15.00;64.80
35700;DHT22;21818;51.078;12.108;2023-04-03T14:41:43;15.00;64.90
35700;DHT22;21818;51.078;12.108;2023-04-03T14:44:09;15.00;65.00
35700;DHT22;21818;51.078;12.108;2023-04-03T14:46:38;15.00;65.00
35700;DHT22;21818;51.078;12.108;2023-04-03T14:49:14;15.00;65.10
35700;DHT22;21818;51.078;12.108;2023-04-03T14:51:39;14.90;65.10
35700;DHT22;21818;51.078;12.108;2023-04-03T14:54:09;14.90;65.20
35700;DHT22;21818;51.078;12.108;2023-04-03T14:56:36;14.90;65.30
35700;DHT22;21818;51.078;12.108;2023-04-03T14:59:02;14.90;65.30
35700;DHT22;21818;51.078;12.108;2023-04-03T15:01:28;14.90;65.40
35700;DHT22;21818;51.078;12.108;2023-04-03T15:03:54;14.90;65.40
35700;DHT22;21818;51.078;12.108;2023-04-03T15:06:20;14.90;65.30
35700;DHT22;21818;51.078;12.108;2023-04-03T15:08:47;14.90;65.50
35700;DHT22;21818;51.078;12.108;2023-04-03T15:11:14;14.80;65.50
35700;DHT22;21818;51.078;12.108;2023-04-03T15:13:40;14.80;65.50
35700;DHT22;21818;51.078;12.108;2023-04-03T15:16:15;14.80;65.60
35700;DHT22;21818;51.078;12.108;2023-04-03T15:18:41;14.80;65.90
35700;DHT22;21818;51.078;12.108;2023-04-03T15:21:07;14.80;66.20
35700;DHT22;21818;51.078;12.108;2023-04-03T15:23:32;14.80;66.30
35700;DHT22;21818;51.078;12.108;2023-04-03T15:25:58;14.80;66.40
35700;DHT22;21818;51.078;12.108;2023-04-03T15:28:37;14.80;66.50
35700;DHT22;21818;51.078;12.108;2023-04-03T15:31:04;14.80;66.50
35700;DHT22;21818;51.078;12.108;2023-04-03T15:33:31;14.70;66.50
35700;DHT22;21818;51.078;12.108;2023-04-03T15:35:57;14.70;66.50
35700;DHT22;21818;51.078;12.108;2023-04-03T15:38:23;14.70;66.60
35700;DHT22;21818;51.078;12.108;2023-04-03T15:40:48;14.60;66.60
35700;DHT22;21818;51.078;12.108;2023-04-03T15:43:15;14.60;66.60
35700;DHT22;21818;51.078;12.108;2023-04-03T15:45:42;14.60;66.70
35700;DHT22;21818;51.078;12.108;2023-04-03T15:48:08;14.60;66.80
35700;DHT22;21818;51.078;12.108;2023-04-03T15:50:34;14.60;66.80
35700;DHT22;21818;51.078;12.108;2023-04-03T15:53:01;14.60;66.90
35700;DHT22;21818;51.078;12.108;2023-04-03T15:55:29;14.60;67.00
35700;DHT22;21818;51.078;12.108;2023-04-03T15:57:55;14.60;67.00
35700;DHT22;21818;51.078;12.108;2023-04-03T16:00:22;14.50;67.00
35700;DHT22;21818;51.078;12.108;2023-04-03T16:02:49;14.50;67.00
35700;DHT22;21818;51.078;12.108;2023-04-03T16:05:17;14.50;67.10
35700;DHT22;21818;51.078;12.108;2023-04-03T16:07:44;14.50;67.10
35700;DHT22;21818;51.078;12.108;2023-04-03T16:10:11;14.50;67.20
35700;DHT22;21818;51.078;12.108;2023-04-03T16:12:37;14.50;67.30
35700;DHT22;21818;51.078;12.108;2023-04-03T16:15:03;14.40;67.30
35700;DHT22;21818;51.078;12.108;2023-04-03T16:17:29;14.40;67.40
35700;DHT22;21818;51.078;12.108;2023-04-03T16:19:56;14.40;67.50
35700;DHT22;21818;51.078;12.108;2023-04-03T16:22:23;14.40;67.50
35700;DHT22;21818;51.078;12.108;2023-04-03T16:24:49;14.40;67.60
35700;DHT22;21818;51.078;12.108;2023-04-03T16:27:16;14.40;67.70
35700;DHT22;21818;51.078;12.108;2023-04-03T16:29:41;14.40;67.70
35700;DHT22;21818;51.078;12.108;2023-04-03T16:32:07;14.40;67.80
35700;DHT22;21818;51.078;12.108;2023-04-03T16:34:33;14.30;67.80
35700;DHT22;21818;51.078;12.108;2023-04-03T16:36:59;14.30;67.80
35700;DHT22;21818;51.078;12.108;2023-04-03T16:39:25;14.30;67.90
35700;DHT22;21818;51.078;12.108;2023-04-03T16:41:50;14.30;68.00
35700;DHT22;21818;51.078;12.108;2023-04-03T16:44:16;14.20;68.00
35700;DHT22;21818;51.078;12.108;2023-04-03T16:46:41;14.30;68.10
35700;DHT22;21818;51.078;12.108;2023-04-03T16:49:07;14.20;68.10
35700;DHT22;21818;51.078;12.108;2023-04-03T16:51:33;14.20;68.10
35700;DHT22;21818;51.078;12.108;2023-04-03T16:53:58;14.20;68.20
35700;DHT22;21818;51.078;12.108;2023-04-03T16:56:24;14.10;68.20
35700;DHT22;21818;51.078;12.108;2023-04-03T16:58:53;14.10;68.30
35700;DHT22;21818;51.078;12.108;2023-04-03T17:01:20;14.10;68.40
35700;DHT22;21818;51.078;12.108;2023-04-03T17:03:46;14.10;68.40
35700;DHT22;21818;51.078;12.108;2023-04-03T17:06:16;14.10;68.40
35700;DHT22;21818;51.078;12.108;2023-04-03T17:08:43;14.20;68.40
35700;DHT22;21818;51.078;12.108;2023-04-03T17:11:10;14.20;68.40
35700;DHT22;21818;51.078;12.108;2023-04-03T17:13:35;14.20;68.40
35700;DHT22;21818;51.078;12.108;2023-04-03T17:16:02;14.10;68.40
35700;DHT22;21818;51.078;12.108;2023-04-03T17:18:30;14.20;68.50
35700;DHT22;21818;51.078;12.108;2023-04-03T17:20:56;14.10;68.50
35700;DHT22;21818;51.078;12.108;2023-04-03T17:23:23;14.10;68.50
35700;DHT22;21818;51.078;12.108;2023-04-03T17:25:50;14.10;68.60